WZZ399 BKPR-LYBE
Flight info
| Callsign | WZZ399 |
|---|---|
| Flight time | 0h 32m |
| Altitude | 200 |
| Route | BKPR UDVA1D UDVAR DCT GAZON GAZO3D LYBE |
| Aircraft | A202/M-VGD/A |
Departure
| Time | 2026-04-26 18:30 |
|---|---|
| Airport | Priština Adem Jashari International Airport (BKPR) |
Arrival
| Time | 2026-04-26 19:02 |
|---|---|
| Airport | Belgrade Nikola Tesla Airport (LYBE) |
| Time | Latitude | Longitude | Altitude | Speed | Heading |
|---|---|---|---|---|---|
| 2026-04-26 18:07 | 42.58670 | 21.03065 | 1776 ft | 0 kts | 280° |
| 2026-04-26 18:20 | 42.58669 | 21.03061 | 1776 ft | 0 kts | 262° |
| 2026-04-26 18:20 | 42.58669 | 21.03060 | 1776 ft | 0 kts | 253° |
| 2026-04-26 18:20 | 42.58665 | 21.03054 | 1777 ft | 2 kts | 235° |
| 2026-04-26 18:20 | 42.58654 | 21.03043 | 1776 ft | 4 kts | 211° |
| 2026-04-26 18:21 | 42.58611 | 21.03058 | 1776 ft | 7 kts | 145° |
| 2026-04-26 18:21 | 42.58560 | 21.03102 | 1776 ft | 10 kts | 151° |
| 2026-04-26 18:21 | 42.58484 | 21.03143 | 1777 ft | 13 kts | 165° |
| 2026-04-26 18:21 | 42.58404 | 21.03200 | 1776 ft | 14 kts | 127° |
| 2026-04-26 18:22 | 42.58307 | 21.03241 | 1776 ft | 16 kts | 177° |
| 2026-04-26 18:22 | 42.58183 | 21.03250 | 1779 ft | 19 kts | 176° |
| 2026-04-26 18:22 | 42.58041 | 21.03264 | 1777 ft | 22 kts | 175° |
| 2026-04-26 18:22 | 42.57879 | 21.03282 | 1778 ft | 24 kts | 175° |
| 2026-04-26 18:23 | 42.57702 | 21.03302 | 1778 ft | 27 kts | 175° |
| 2026-04-26 18:23 | 42.57511 | 21.03317 | 1778 ft | 28 kts | 174° |
| 2026-04-26 18:23 | 42.57309 | 21.03341 | 1774 ft | 30 kts | 177° |
| 2026-04-26 18:23 | 42.57094 | 21.03364 | 1774 ft | 32 kts | 174° |
| 2026-04-26 18:24 | 42.56876 | 21.03379 | 1775 ft | 32 kts | 177° |
| 2026-04-26 18:24 | 42.56651 | 21.03404 | 1774 ft | 33 kts | 174° |
| 2026-04-26 18:24 | 42.56417 | 21.03431 | 1774 ft | 34 kts | 176° |
| 2026-04-26 18:24 | 42.56316 | 21.03575 | 1772 ft | 0 kts | 93° |
| 2026-04-26 18:29 | 42.56316 | 21.03577 | 1772 ft | 1 kts | 97° |
| 2026-04-26 18:29 | 42.56312 | 21.03614 | 1771 ft | 6 kts | 96° |
| 2026-04-26 18:29 | 42.56330 | 21.03673 | 1772 ft | 7 kts | 36° |
| 2026-04-26 18:29 | 42.56383 | 21.03677 | 1771 ft | 9 kts | 354° |
| 2026-04-26 18:30 | 42.56630 | 21.03651 | 1771 ft | 70 kts | 356° |
| 2026-04-26 18:30 | 42.57322 | 21.03585 | 1776 ft | 126 kts | 355° |
| 2026-04-26 18:30 | 42.58281 | 21.03495 | 2136 ft | 138 kts | 358° |
| 2026-04-26 18:30 | 42.59290 | 21.03374 | 2634 ft | 153 kts | 355° |
| 2026-04-26 18:31 | 42.60359 | 21.03267 | 3252 ft | 154 kts | 0° |
| 2026-04-26 18:31 | 42.61429 | 21.03202 | 3875 ft | 157 kts | 358° |
| 2026-04-26 18:31 | 42.62564 | 21.03086 | 4224 ft | 176 kts | 356° |
| 2026-04-26 18:31 | 42.63862 | 21.03079 | 4597 ft | 199 kts | 6° |
| 2026-04-26 18:32 | 42.65347 | 21.03182 | 5197 ft | 221 kts | 0° |
| 2026-04-26 18:32 | 42.66939 | 21.03188 | 5724 ft | 244 kts | 359° |
| 2026-04-26 18:32 | 42.68691 | 21.03184 | 6521 ft | 255 kts | 359° |
| 2026-04-26 18:32 | 42.70484 | 21.03198 | 7476 ft | 261 kts | 359° |
| 2026-04-26 18:33 | 42.72319 | 21.03230 | 8414 ft | 267 kts | 359° |
| 2026-04-26 18:33 | 42.74210 | 21.03272 | 9351 ft | 274 kts | 359° |
| 2026-04-26 18:33 | 42.76131 | 21.03320 | 10266 ft | 281 kts | 359° |
| 2026-04-26 18:33 | 42.78168 | 21.03363 | 10729 ft | 304 kts | 359° |
| 2026-04-26 18:34 | 42.80369 | 21.03406 | 11123 ft | 326 kts | 359° |
| 2026-04-26 18:34 | 42.82669 | 21.03455 | 11879 ft | 333 kts | 359° |
| 2026-04-26 18:34 | 42.85002 | 21.03507 | 12792 ft | 337 kts | 359° |
| 2026-04-26 18:34 | 42.87353 | 21.03559 | 13715 ft | 340 kts | 359° |
| 2026-04-26 18:35 | 42.89707 | 21.03609 | 14490 ft | 345 kts | 359° |
| 2026-04-26 18:35 | 42.92129 | 21.03659 | 15226 ft | 350 kts | 359° |
| 2026-04-26 18:35 | 42.94579 | 21.03709 | 15995 ft | 354 kts | 360° |
| 2026-04-26 18:35 | 42.97052 | 21.03760 | 16781 ft | 357 kts | 0° |
| 2026-04-26 18:36 | 42.99546 | 21.03811 | 17549 ft | 360 kts | 0° |
| 2026-04-26 18:36 | 43.02060 | 21.03863 | 18233 ft | 366 kts | 0° |
| 2026-04-26 18:36 | 43.04488 | 21.03913 | 18898 ft | 368 kts | 0° |
| 2026-04-26 18:36 | 43.07046 | 21.03965 | 19644 ft | 367 kts | 0° |
| 2026-04-26 18:37 | 43.09587 | 21.04016 | 19975 ft | 374 kts | 0° |
| 2026-04-26 18:37 | 43.12208 | 21.03969 | 20111 ft | 380 kts | 355° |
| 2026-04-26 18:37 | 43.14846 | 21.03589 | 20137 ft | 378 kts | 353° |
| 2026-04-26 18:37 | 43.17441 | 21.03207 | 20135 ft | 372 kts | 354° |
| 2026-04-26 18:38 | 43.20008 | 21.02836 | 20146 ft | 374 kts | 354° |
| 2026-04-26 18:38 | 43.22621 | 21.02459 | 20147 ft | 378 kts | 354° |
| 2026-04-26 18:38 | 43.25242 | 21.02081 | 20142 ft | 377 kts | 354° |
| 2026-04-26 18:38 | 43.27840 | 21.01705 | 20143 ft | 374 kts | 354° |
| 2026-04-26 18:39 | 43.30423 | 21.01330 | 20146 ft | 376 kts | 354° |
| 2026-04-26 18:39 | 43.33043 | 21.00949 | 20143 ft | 379 kts | 354° |
| 2026-04-26 18:39 | 43.35656 | 21.00568 | 20141 ft | 375 kts | 354° |
| 2026-04-26 18:39 | 43.38239 | 21.00192 | 20141 ft | 371 kts | 354° |
| 2026-04-26 18:40 | 43.40811 | 20.99817 | 20145 ft | 373 kts | 354° |
| 2026-04-26 18:40 | 43.43402 | 20.99440 | 20147 ft | 377 kts | 354° |
| 2026-04-26 18:40 | 43.46017 | 20.99058 | 20144 ft | 375 kts | 354° |
| 2026-04-26 18:40 | 43.48594 | 20.98681 | 20145 ft | 369 kts | 354° |
| 2026-04-26 18:41 | 43.51120 | 20.98311 | 20145 ft | 374 kts | 354° |
| 2026-04-26 18:41 | 43.53719 | 20.97931 | 20142 ft | 375 kts | 354° |
| 2026-04-26 18:41 | 43.56308 | 20.97552 | 20140 ft | 367 kts | 354° |
| 2026-04-26 18:41 | 43.58789 | 20.97188 | 20139 ft | 349 kts | 354° |
| 2026-04-26 18:42 | 43.61147 | 20.96842 | 20144 ft | 332 kts | 354° |
| 2026-04-26 18:42 | 43.63385 | 20.96514 | 20146 ft | 318 kts | 353° |
| 2026-04-26 18:42 | 43.65614 | 20.96187 | 20146 ft | 325 kts | 353° |
| 2026-04-26 18:42 | 43.67869 | 20.95855 | 20143 ft | 325 kts | 353° |
| 2026-04-26 18:43 | 43.70111 | 20.95525 | 20142 ft | 323 kts | 353° |
| 2026-04-26 18:43 | 43.72324 | 20.95200 | 20143 ft | 325 kts | 353° |
| 2026-04-26 18:43 | 43.74604 | 20.94864 | 20141 ft | 326 kts | 353° |
| 2026-04-26 18:43 | 43.76833 | 20.94535 | 20107 ft | 325 kts | 354° |
| 2026-04-26 18:44 | 43.79072 | 20.94203 | 19905 ft | 324 kts | 354° |
| 2026-04-26 18:44 | 43.81308 | 20.93873 | 19574 ft | 321 kts | 354° |
| 2026-04-26 18:44 | 43.83519 | 20.93547 | 19246 ft | 317 kts | 353° |
| 2026-04-26 18:44 | 43.85707 | 20.93224 | 18888 ft | 314 kts | 353° |
| 2026-04-26 18:45 | 43.87883 | 20.92902 | 18477 ft | 313 kts | 353° |
| 2026-04-26 18:45 | 43.89314 | 20.92689 | 18277 ft | 309 kts | 353° |
| 2026-04-26 18:45 | 43.91445 | 20.92374 | 18160 ft | 310 kts | 353° |
| 2026-04-26 18:45 | 43.94343 | 20.91943 | 18151 ft | 313 kts | 353° |
| 2026-04-26 18:46 | 43.95772 | 20.91731 | 18149 ft | 312 kts | 353° |
| 2026-04-26 18:46 | 43.97933 | 20.91410 | 18115 ft | 311 kts | 353° |
| 2026-04-26 18:46 | 44.00075 | 20.91092 | 17890 ft | 310 kts | 353° |
| 2026-04-26 18:46 | 44.02213 | 20.90774 | 17515 ft | 308 kts | 353° |
| 2026-04-26 18:47 | 44.04341 | 20.90461 | 17132 ft | 306 kts | 352° |
| 2026-04-26 18:47 | 44.06445 | 20.90149 | 16712 ft | 304 kts | 352° |
| 2026-04-26 18:47 | 44.08508 | 20.89842 | 16326 ft | 301 kts | 352° |
| 2026-04-26 18:47 | 44.10588 | 20.89531 | 15923 ft | 298 kts | 352° |
| 2026-04-26 18:48 | 44.12648 | 20.89224 | 15529 ft | 296 kts | 352° |
| 2026-04-26 18:48 | 44.14690 | 20.88919 | 15137 ft | 294 kts | 352° |
| 2026-04-26 18:48 | 44.16699 | 20.88480 | 14754 ft | 290 kts | 345° |
| 2026-04-26 18:48 | 44.18623 | 20.87672 | 14377 ft | 288 kts | 341° |
| 2026-04-26 18:49 | 44.20525 | 20.86821 | 13987 ft | 286 kts | 341° |
| 2026-04-26 18:49 | 44.22420 | 20.85987 | 13583 ft | 284 kts | 341° |
| 2026-04-26 18:49 | 44.24287 | 20.85169 | 13304 ft | 278 kts | 341° |
| 2026-04-26 18:49 | 44.26108 | 20.84370 | 13173 ft | 275 kts | 341° |
| 2026-04-26 18:50 | 44.27954 | 20.83557 | 13146 ft | 280 kts | 341° |
| 2026-04-26 18:50 | 44.29803 | 20.82735 | 13060 ft | 277 kts | 339° |
| 2026-04-26 18:50 | 44.31558 | 20.81728 | 12747 ft | 275 kts | 336° |
| 2026-04-26 18:50 | 44.33315 | 20.80689 | 12357 ft | 274 kts | 336° |
| 2026-04-26 18:51 | 44.35061 | 20.79656 | 11977 ft | 272 kts | 335° |
| 2026-04-26 18:51 | 44.36795 | 20.78627 | 11583 ft | 270 kts | 335° |
| 2026-04-26 18:51 | 44.38515 | 20.77605 | 11195 ft | 268 kts | 335° |
| 2026-04-26 18:51 | 44.40228 | 20.76587 | 10815 ft | 266 kts | 335° |
| 2026-04-26 18:52 | 44.41931 | 20.75574 | 10433 ft | 264 kts | 335° |
| 2026-04-26 18:52 | 44.43624 | 20.74566 | 10058 ft | 263 kts | 335° |
| 2026-04-26 18:52 | 44.45305 | 20.73565 | 9662 ft | 261 kts | 335° |
| 2026-04-26 18:52 | 44.46958 | 20.72579 | 9204 ft | 261 kts | 335° |
| 2026-04-26 18:53 | 44.48623 | 20.71584 | 8804 ft | 259 kts | 335° |
| 2026-04-26 18:53 | 44.50274 | 20.70599 | 8432 ft | 256 kts | 335° |
| 2026-04-26 18:53 | 44.51910 | 20.69622 | 8073 ft | 254 kts | 335° |
| 2026-04-26 18:53 | 44.53528 | 20.68654 | 7699 ft | 252 kts | 335° |
| 2026-04-26 18:54 | 44.55148 | 20.67685 | 7114 ft | 253 kts | 335° |
| 2026-04-26 18:54 | 44.56768 | 20.66714 | 6507 ft | 253 kts | 335° |
| 2026-04-26 18:54 | 44.58389 | 20.65742 | 5857 ft | 252 kts | 335° |
| 2026-04-26 18:54 | 44.59986 | 20.64784 | 5243 ft | 252 kts | 336° |
| 2026-04-26 18:55 | 44.61602 | 20.63814 | 4625 ft | 253 kts | 336° |
| 2026-04-26 18:55 | 44.63200 | 20.62855 | 4420 ft | 244 kts | 336° |
| 2026-04-26 18:55 | 44.64726 | 20.61938 | 4305 ft | 232 kts | 336° |
| 2026-04-26 18:55 | 44.66179 | 20.61067 | 4214 ft | 221 kts | 336° |
| 2026-04-26 18:56 | 44.67564 | 20.60237 | 4129 ft | 211 kts | 335° |
| 2026-04-26 18:56 | 44.68691 | 20.59022 | 3995 ft | 204 kts | 311° |
| 2026-04-26 18:56 | 44.69516 | 20.57461 | 3893 ft | 194 kts | 308° |
| 2026-04-26 18:56 | 44.70269 | 20.55948 | 3796 ft | 184 kts | 308° |
| 2026-04-26 18:57 | 44.70991 | 20.54481 | 3603 ft | 181 kts | 308° |
| 2026-04-26 18:57 | 44.71457 | 20.53530 | 3519 ft | 176 kts | 308° |
| 2026-04-26 18:57 | 44.72380 | 20.51628 | 3421 ft | 180 kts | 308° |
| 2026-04-26 18:57 | 44.73065 | 20.50192 | 3293 ft | 170 kts | 308° |
| 2026-04-26 18:58 | 44.73686 | 20.48879 | 3062 ft | 154 kts | 308° |
| 2026-04-26 18:58 | 44.74256 | 20.47677 | 2868 ft | 142 kts | 308° |
| 2026-04-26 18:58 | 44.74778 | 20.46566 | 2705 ft | 133 kts | 308° |
| 2026-04-26 18:58 | 44.75261 | 20.45534 | 2530 ft | 123 kts | 309° |
| 2026-04-26 18:59 | 44.75735 | 20.44518 | 2366 ft | 124 kts | 309° |
| 2026-04-26 18:59 | 44.76206 | 20.43504 | 2209 ft | 124 kts | 309° |
| 2026-04-26 18:59 | 44.76674 | 20.42486 | 2031 ft | 123 kts | 309° |
| 2026-04-26 18:59 | 44.77140 | 20.41464 | 1869 ft | 124 kts | 309° |
| 2026-04-26 19:00 | 44.77603 | 20.40443 | 1698 ft | 123 kts | 309° |
| 2026-04-26 19:00 | 44.78073 | 20.39433 | 1529 ft | 123 kts | 308° |
| 2026-04-26 19:00 | 44.78523 | 20.38422 | 1360 ft | 121 kts | 307° |
| 2026-04-26 19:00 | 44.78968 | 20.37423 | 1201 ft | 121 kts | 307° |
| 2026-04-26 19:01 | 44.79417 | 20.36408 | 1040 ft | 122 kts | 306° |
| 2026-04-26 19:01 | 44.79866 | 20.35392 | 874 ft | 123 kts | 305° |
| 2026-04-26 19:01 | 44.80313 | 20.34383 | 701 ft | 121 kts | 306° |
| 2026-04-26 19:01 | 44.80760 | 20.33371 | 559 ft | 123 kts | 304° |
| 2026-04-26 19:02 | 44.81211 | 20.32353 | 401 ft | 121 kts | 304° |
| 2026-04-26 19:02 | 44.81663 | 20.31348 | 330 ft | 120 kts | 303° |
| 2026-04-26 19:02 | 44.82028 | 20.30522 | 327 ft | 60 kts | 303° |
| 2026-04-26 19:02 | 44.82106 | 20.30345 | 328 ft | 10 kts | 301° |
| 2026-04-26 19:03 | 44.82290 | 20.29928 | 328 ft | 35 kts | 302° |
| 2026-04-26 19:03 | 44.82327 | 20.29729 | 325 ft | 16 kts | 218° |
| 2026-04-26 19:03 | 44.82266 | 20.29673 | 327 ft | 0 kts | 213° |
| 2026-04-26 19:04 | 44.82246 | 20.29655 | 325 ft | 6 kts | 213° |
| 2026-04-26 19:04 | 44.82197 | 20.29611 | 327 ft | 10 kts | 212° |
| 2026-04-26 19:04 | 44.82120 | 20.29541 | 327 ft | 2 kts | 213° |
| 2026-04-26 19:04 | 44.82105 | 20.29528 | 324 ft | 7 kts | 213° |
| 2026-04-26 19:05 | 44.81967 | 20.29411 | 326 ft | 15 kts | 211° |
| 2026-04-26 19:05 | 44.81924 | 20.29290 | 327 ft | 15 kts | 294° |
| 2026-04-26 19:05 | 44.81933 | 20.29275 | 327 ft | 0 kts | 312° |